sensor_id;sensor_type;location;lat;lon;timestamp;temperature;humidity
7232;DHT22;3657;49.630;11.018;2023-04-03T00:01:04;4.40;99.90
7232;DHT22;3657;49.630;11.018;2023-04-03T00:03:31;4.40;99.90
7232;DHT22;3657;49.630;11.018;2023-04-03T00:05:57;4.40;99.90
7232;DHT22;3657;49.630;11.018;2023-04-03T00:08:24;4.40;99.90
7232;DHT22;3657;49.630;11.018;2023-04-03T00:10:51;4.40;99.90
7232;DHT22;3657;49.630;11.018;2023-04-03T00:13:17;4.40;99.90
7232;DHT22;3657;49.630;11.018;2023-04-03T00:15:44;4.40;99.90
7232;DHT22;3657;49.630;11.018;2023-04-03T00:18:12;4.40;99.90
7232;DHT22;3657;49.630;11.018;2023-04-03T00:20:39;4.40;99.90
7232;DHT22;3657;49.630;11.018;2023-04-03T00:23:06;4.40;99.90
7232;DHT22;3657;49.630;11.018;2023-04-03T00:25:32;4.40;99.90
7232;DHT22;3657;49.630;11.018;2023-04-03T00:27:59;4.30;99.90
7232;DHT22;3657;49.630;11.018;2023-04-03T00:30:26;4.40;99.90
7232;DHT22;3657;49.630;11.018;2023-04-03T00:32:53;4.30;99.90
7232;DHT22;3657;49.630;11.018;2023-04-03T00:35:22;4.40;99.90
7232;DHT22;3657;49.630;11.018;2023-04-03T00:37:51;4.30;99.90
7232;DHT22;3657;49.630;11.018;2023-04-03T00:40:18;4.30;99.90
7232;DHT22;3657;49.630;11.018;2023-04-03T00:42:46;4.30;99.90
7232;DHT22;3657;49.630;11.018;2023-04-03T00:45:26;4.30;99.90
7232;DHT22;3657;49.630;11.018;2023-04-03T00:47:54;4.30;99.90
7232;DHT22;3657;49.630;11.018;2023-04-03T00:50:23;4.30;99.90
7232;DHT22;3657;49.630;11.018;2023-04-03T00:52:50;4.20;99.90
7232;DHT22;3657;49.630;11.018;2023-04-03T00:55:17;4.20;99.90
7232;DHT22;3657;49.630;11.018;2023-04-03T00:57:45;4.20;99.90
7232;DHT22;3657;49.630;11.018;2023-04-03T01:00:15;4.20;99.90
7232;DHT22;3657;49.630;11.018;2023-04-03T01:02:43;4.20;99.90
7232;DHT22;3657;49.630;11.018;2023-04-03T01:05:10;4.20;99.90
7232;DHT22;3657;49.630;11.018;2023-04-03T01:07:40;4.20;99.90
7232;DHT22;3657;49.630;11.018;2023-04-03T01:10:10;4.20;99.90
7232;DHT22;3657;49.630;11.018;2023-04-03T01:12:40;4.20;99.90
7232;DHT22;3657;49.630;11.018;2023-04-03T01:15:09;4.20;99.90
7232;DHT22;3657;49.630;11.018;2023-04-03T01:17:38;4.20;99.90
7232;DHT22;3657;49.630;11.018;2023-04-03T01:23:32;4.20;99.90
7232;DHT22;3657;49.630;11.018;2023-04-03T01:26:03;4.10;99.90
7232;DHT22;3657;49.630;11.018;2023-04-03T01:28:32;4.00;99.90
7232;DHT22;3657;49.630;11.018;2023-04-03T01:31:04;4.00;99.90
7232;DHT22;3657;49.630;11.018;2023-04-03T01:33:35;4.00;99.90
7232;DHT22;3657;49.630;11.018;2023-04-03T01:36:04;4.00;99.90
7232;DHT22;3657;49.630;11.018;2023-04-03T01:38:31;4.00;99.90
7232;DHT22;3657;49.630;11.018;2023-04-03T01:40:58;4.00;99.90
7232;DHT22;3657;49.630;11.018;2023-04-03T01:43:25;4.00;99.90
7232;DHT22;3657;49.630;11.018;2023-04-03T01:45:51;4.00;99.90
7232;DHT22;3657;49.630;11.018;2023-04-03T01:48:20;4.00;99.90
7232;DHT22;3657;49.630;11.018;2023-04-03T01:50:48;4.00;99.90
7232;DHT22;3657;49.630;11.018;2023-04-03T01:53:15;4.00;99.90
7232;DHT22;3657;49.630;11.018;2023-04-03T01:55:42;4.00;99.90
7232;DHT22;3657;49.630;11.018;2023-04-03T01:58:08;4.00;99.90
7232;DHT22;3657;49.630;11.018;2023-04-03T02:00:35;4.00;99.90
7232;DHT22;3657;49.630;11.018;2023-04-03T02:03:02;4.00;99.90
7232;DHT22;3657;49.630;11.018;2023-04-03T02:05:29;3.90;99.90
7232;DHT22;3657;49.630;11.018;2023-04-03T02:07:57;3.90;99.90
7232;DHT22;3657;49.630;11.018;2023-04-03T02:10:24;3.90;99.90
7232;DHT22;3657;49.630;11.018;2023-04-03T02:12:50;3.90;99.90
7232;DHT22;3657;49.630;11.018;2023-04-03T02:15:17;3.90;99.90
7232;DHT22;3657;49.630;11.018;2023-04-03T02:17:44;3.90;99.90
7232;DHT22;3657;49.630;11.018;2023-04-03T02:20:11;3.80;99.90
7232;DHT22;3657;49.630;11.018;2023-04-03T02:22:37;3.80;99.90
7232;DHT22;3657;49.630;11.018;2023-04-03T02:25:06;3.80;99.90
7232;DHT22;3657;49.630;11.018;2023-04-03T02:27:33;3.80;99.90
7232;DHT22;3657;49.630;11.018;2023-04-03T02:30:00;3.80;99.90
7232;DHT22;3657;49.630;11.018;2023-04-03T02:32:27;3.80;99.90
7232;DHT22;3657;49.630;11.018;2023-04-03T02:34:53;3.80;99.90
7232;DHT22;3657;49.630;11.018;2023-04-03T02:37:20;3.80;99.90
7232;DHT22;3657;49.630;11.018;2023-04-03T02:39:47;3.80;99.90
7232;DHT22;3657;49.630;11.018;2023-04-03T02:42:15;3.80;99.90
7232;DHT22;3657;49.630;11.018;2023-04-03T02:44:41;3.80;99.90
7232;DHT22;3657;49.630;11.018;2023-04-03T02:47:08;3.70;99.90
7232;DHT22;3657;49.630;11.018;2023-04-03T02:49:35;3.70;99.90
7232;DHT22;3657;49.630;11.018;2023-04-03T02:52:01;3.70;99.90
7232;DHT22;3657;49.630;11.018;2023-04-03T02:54:28;3.70;99.90
7232;DHT22;3657;49.630;11.018;2023-04-03T02:56:56;3.70;99.90
7232;DHT22;3657;49.630;11.018;2023-04-03T02:59:24;3.70;99.90
7232;DHT22;3657;49.630;11.018;2023-04-03T03:01:51;3.70;99.90
7232;DHT22;3657;49.630;11.018;2023-04-03T03:04:17;3.70;99.90
7232;DHT22;3657;49.630;11.018;2023-04-03T03:06:44;3.60;99.90
7232;DHT22;3657;49.630;11.018;2023-04-03T03:09:11;3.60;99.90
7232;DHT22;3657;49.630;11.018;2023-04-03T03:11:39;3.60;99.90
7232;DHT22;3657;49.630;11.018;2023-04-03T03:14:05;3.60;99.90
7232;DHT22;3657;49.630;11.018;2023-04-03T03:16:34;3.60;99.90
7232;DHT22;3657;49.630;11.018;2023-04-03T03:19:00;3.50;99.90
7232;DHT22;3657;49.630;11.018;2023-04-03T03:21:27;3.50;99.90
7232;DHT22;3657;49.630;11.018;2023-04-03T03:23:53;3.50;99.90
7232;DHT22;3657;49.630;11.018;2023-04-03T03:26:20;3.50;99.90
7232;DHT22;3657;49.630;11.018;2023-04-03T03:28:47;3.50;99.90
7232;DHT22;3657;49.630;11.018;2023-04-03T03:31:13;3.50;99.90
7232;DHT22;3657;49.630;11.018;2023-04-03T03:33:42;3.50;99.90
7232;DHT22;3657;49.630;11.018;2023-04-03T03:36:08;3.50;99.90
7232;DHT22;3657;49.630;11.018;2023-04-03T03:38:35;3.50;99.90
7232;DHT22;3657;49.630;11.018;2023-04-03T03:41:02;3.40;99.90
7232;DHT22;3657;49.630;11.018;2023-04-03T03:43:29;3.40;99.90
7232;DHT22;3657;49.630;11.018;2023-04-03T03:45:56;3.40;99.90
7232;DHT22;3657;49.630;11.018;2023-04-03T03:48:22;3.50;99.90
7232;DHT22;3657;49.630;11.018;2023-04-03T03:50:51;3.50;99.90
7232;DHT22;3657;49.630;11.018;2023-04-03T03:53:17;3.40;99.90
7232;DHT22;3657;49.630;11.018;2023-04-03T03:55:44;3.40;99.90
7232;DHT22;3657;49.630;11.018;2023-04-03T03:58:11;3.40;99.90
7232;DHT22;3657;49.630;11.018;2023-04-03T04:00:38;3.40;99.90
7232;DHT22;3657;49.630;11.018;2023-04-03T04:03:04;3.40;99.90
7232;DHT22;3657;49.630;11.018;2023-04-03T04:05:31;3.40;99.90
7232;DHT22;3657;49.630;11.018;2023-04-03T04:07:59;3.40;99.90
7232;DHT22;3657;49.630;11.018;2023-04-03T04:10:26;3.40;99.90
7232;DHT22;3657;49.630;11.018;2023-04-03T04:12:52;3.40;99.90
7232;DHT22;3657;49.630;11.018;2023-04-03T04:15:19;3.40;99.90
7232;DHT22;3657;49.630;11.018;2023-04-03T04:17:47;3.40;99.90
7232;DHT22;3657;49.630;11.018;2023-04-03T04:20:14;3.40;99.90
7232;DHT22;3657;49.630;11.018;2023-04-03T04:22:40;3.40;99.90
7232;DHT22;3657;49.630;11.018;2023-04-03T04:25:09;3.40;99.90
7232;DHT22;3657;49.630;11.018;2023-04-03T04:27:35;3.30;99.90
7232;DHT22;3657;49.630;11.018;2023-04-03T04:30:03;3.30;99.90
7232;DHT22;3657;49.630;11.018;2023-04-03T04:32:30;3.30;99.90
7232;DHT22;3657;49.630;11.018;2023-04-03T04:34:56;3.30;99.90
7232;DHT22;3657;49.630;11.018;2023-04-03T04:37:23;3.30;99.90
7232;DHT22;3657;49.630;11.018;2023-04-03T04:39:50;3.30;99.90
7232;DHT22;3657;49.630;11.018;2023-04-03T04:42:18;3.30;99.90
7232;DHT22;3657;49.630;11.018;2023-04-03T04:44:44;3.20;99.90
7232;DHT22;3657;49.630;11.018;2023-04-03T04:47:11;3.20;99.90
7232;DHT22;3657;49.630;11.018;2023-04-03T04:49:38;3.10;99.90
7232;DHT22;3657;49.630;11.018;2023-04-03T04:52:04;3.10;99.90
7232;DHT22;3657;49.630;11.018;2023-04-03T04:54:31;3.10;99.90
7232;DHT22;3657;49.630;11.018;2023-04-03T04:56:58;3.10;99.90
7232;DHT22;3657;49.630;11.018;2023-04-03T04:59:26;3.10;99.90
7232;DHT22;3657;49.630;11.018;2023-04-03T05:01:53;3.10;99.90
7232;DHT22;3657;49.630;11.018;2023-04-03T05:04:20;3.10;99.90
7232;DHT22;3657;49.630;11.018;2023-04-03T05:06:46;3.10;99.90
7232;DHT22;3657;49.630;11.018;2023-04-03T05:09:13;3.10;99.90
7232;DHT22;3657;49.630;11.018;2023-04-03T05:11:40;3.10;99.90
7232;DHT22;3657;49.630;11.018;2023-04-03T05:14:07;3.10;99.90
7232;DHT22;3657;49.630;11.018;2023-04-03T05:16:35;3.10;99.90
7232;DHT22;3657;49.630;11.018;2023-04-03T05:19:01;3.10;99.90
7232;DHT22;3657;49.630;11.018;2023-04-03T05:21:28;3.10;99.90
7232;DHT22;3657;49.630;11.018;2023-04-03T05:23:57;3.10;99.90
7232;DHT22;3657;49.630;11.018;2023-04-03T05:26:24;3.10;99.90
7232;DHT22;3657;49.630;11.018;2023-04-03T05:28:51;3.00;99.90
7232;DHT22;3657;49.630;11.018;2023-04-03T05:31:18;3.00;99.90
7232;DHT22;3657;49.630;11.018;2023-04-03T05:33:47;3.00;99.90
7232;DHT22;3657;49.630;11.018;2023-04-03T05:36:14;2.90;99.90
7232;DHT22;3657;49.630;11.018;2023-04-03T05:38:41;2.90;99.90
7232;DHT22;3657;49.630;11.018;2023-04-03T05:41:07;2.90;99.90
7232;DHT22;3657;49.630;11.018;2023-04-03T05:43:34;2.90;99.90
7232;DHT22;3657;49.630;11.018;2023-04-03T05:46:03;2.90;99.90
7232;DHT22;3657;49.630;11.018;2023-04-03T05:48:29;2.80;99.90
7232;DHT22;3657;49.630;11.018;2023-04-03T05:50:58;2.80;99.90
7232;DHT22;3657;49.630;11.018;2023-04-03T05:53:27;2.80;99.90
7232;DHT22;3657;49.630;11.018;2023-04-03T05:55:54;2.80;99.90
7232;DHT22;3657;49.630;11.018;2023-04-03T05:58:21;2.80;99.90
7232;DHT22;3657;49.630;11.018;2023-04-03T06:00:48;2.70;99.90
7232;DHT22;3657;49.630;11.018;2023-04-03T06:03:14;2.70;99.90
7232;DHT22;3657;49.630;11.018;2023-04-03T06:05:42;2.70;99.90
7232;DHT22;3657;49.630;11.018;2023-04-03T06:08:10;2.70;99.90
7232;DHT22;3657;49.630;11.018;2023-04-03T06:10:38;2.80;99.90
7232;DHT22;3657;49.630;11.018;2023-04-03T06:13:05;2.80;99.90
7232;DHT22;3657;49.630;11.018;2023-04-03T06:15:31;2.80;99.90
7232;DHT22;3657;49.630;11.018;2023-04-03T06:17:59;2.80;99.90
7232;DHT22;3657;49.630;11.018;2023-04-03T06:20:25;2.70;99.90
7232;DHT22;3657;49.630;11.018;2023-04-03T06:22:52;2.80;99.90
7232;DHT22;3657;49.630;11.018;2023-04-03T06:25:20;2.80;99.90
7232;DHT22;3657;49.630;11.018;2023-04-03T06:27:47;2.90;99.90
7232;DHT22;3657;49.630;11.018;2023-04-03T06:30:13;2.80;99.90
7232;DHT22;3657;49.630;11.018;2023-04-03T06:32:40;2.90;99.90
7232;DHT22;3657;49.630;11.018;2023-04-03T06:35:08;2.90;99.90
7232;DHT22;3657;49.630;11.018;2023-04-03T06:37:36;2.90;99.90
7232;DHT22;3657;49.630;11.018;2023-04-03T06:40:03;2.90;99.90
7232;DHT22;3657;49.630;11.018;2023-04-03T06:42:31;2.90;99.90
7232;DHT22;3657;49.630;11.018;2023-04-03T06:44:58;2.80;99.90
7232;DHT22;3657;49.630;11.018;2023-04-03T06:47:25;2.80;99.90
7232;DHT22;3657;49.630;11.018;2023-04-03T06:49:52;2.80;99.90
7232;DHT22;3657;49.630;11.018;2023-04-03T06:52:19;2.80;99.90
7232;DHT22;3657;49.630;11.018;2023-04-03T06:54:46;2.80;99.90
7232;DHT22;3657;49.630;11.018;2023-04-03T06:57:12;2.90;99.90
7232;DHT22;3657;49.630;11.018;2023-04-03T06:59:41;2.90;99.90
7232;DHT22;3657;49.630;11.018;2023-04-03T07:02:10;2.90;99.90
7232;DHT22;3657;49.630;11.018;2023-04-03T07:04:38;3.00;99.90
7232;DHT22;3657;49.630;11.018;2023-04-03T07:07:04;3.00;99.90
7232;DHT22;3657;49.630;11.018;2023-04-03T07:09:31;3.00;99.90
7232;DHT22;3657;49.630;11.018;2023-04-03T07:11:58;3.10;99.90
7232;DHT22;3657;49.630;11.018;2023-04-03T07:14:24;3.10;99.90
7232;DHT22;3657;49.630;11.018;2023-04-03T07:16:52;3.10;99.90
7232;DHT22;3657;49.630;11.018;2023-04-03T07:19:19;3.20;99.90
7232;DHT22;3657;49.630;11.018;2023-04-03T07:21:46;3.30;99.90
7232;DHT22;3657;49.630;11.018;2023-04-03T07:24:13;3.30;99.90
7232;DHT22;3657;49.630;11.018;2023-04-03T07:26:40;3.40;99.90
7232;DHT22;3657;49.630;11.018;2023-04-03T07:29:06;3.40;99.90
7232;DHT22;3657;49.630;11.018;2023-04-03T07:31:34;3.40;99.90
7232;DHT22;3657;49.630;11.018;2023-04-03T07:34:02;3.40;99.90
7232;DHT22;3657;49.630;11.018;2023-04-03T07:36:29;3.50;99.90
7232;DHT22;3657;49.630;11.018;2023-04-03T07:38:58;3.50;99.90
7232;DHT22;3657;49.630;11.018;2023-04-03T07:41:25;3.50;99.90
7232;DHT22;3657;49.630;11.018;2023-04-03T07:43:51;3.60;99.90
7232;DHT22;3657;49.630;11.018;2023-04-03T07:46:19;3.60;99.90
7232;DHT22;3657;49.630;11.018;2023-04-03T07:48:46;3.70;99.90
7232;DHT22;3657;49.630;11.018;2023-04-03T07:51:14;3.80;99.90
7232;DHT22;3657;49.630;11.018;2023-04-03T07:53:41;3.80;99.90
7232;DHT22;3657;49.630;11.018;2023-04-03T07:56:08;3.90;99.90
7232;DHT22;3657;49.630;11.018;2023-04-03T07:58:35;3.90;99.90
7232;DHT22;3657;49.630;11.018;2023-04-03T08:01:03;4.00;99.90
7232;DHT22;3657;49.630;11.018;2023-04-03T08:03:29;4.10;99.90
7232;DHT22;3657;49.630;11.018;2023-04-03T08:06:01;4.10;99.90
7232;DHT22;3657;49.630;11.018;2023-04-03T08:08:30;4.20;99.90
7232;DHT22;3657;49.630;11.018;2023-04-03T08:10:59;4.30;99.90
7232;DHT22;3657;49.630;11.018;2023-04-03T08:13:28;4.20;99.90
7232;DHT22;3657;49.630;11.018;2023-04-03T08:15:55;4.20;99.90
7232;DHT22;3657;49.630;11.018;2023-04-03T08:18:23;4.20;99.90
7232;DHT22;3657;49.630;11.018;2023-04-03T08:20:50;4.30;99.90
7232;DHT22;3657;49.630;11.018;2023-04-03T08:23:17;4.50;99.90
7232;DHT22;3657;49.630;11.018;2023-04-03T08:25:45;4.90;99.90
7232;DHT22;3657;49.630;11.018;2023-04-03T08:28:12;5.00;99.90
7232;DHT22;3657;49.630;11.018;2023-04-03T08:30:39;5.10;99.90
7232;DHT22;3657;49.630;11.018;2023-04-03T08:33:06;5.20;99.90
7232;DHT22;3657;49.630;11.018;2023-04-03T08:35:33;5.40;99.90
7232;DHT22;3657;49.630;11.018;2023-04-03T08:38:04;5.60;99.90
7232;DHT22;3657;49.630;11.018;2023-04-03T08:40:30;5.50;99.90
7232;DHT22;3657;49.630;11.018;2023-04-03T08:43:09;5.30;99.90
7232;DHT22;3657;49.630;11.018;2023-04-03T08:45:49;5.30;99.90
7232;DHT22;3657;49.630;11.018;2023-04-03T08:48:20;5.30;99.90
7232;DHT22;3657;49.630;11.018;2023-04-03T08:50:51;5.50;99.90
7232;DHT22;3657;49.630;11.018;2023-04-03T08:53:21;5.60;99.90
7232;DHT22;3657;49.630;11.018;2023-04-03T08:55:51;5.40;99.90
7232;DHT22;3657;49.630;11.018;2023-04-03T08:58:21;5.60;99.90
7232;DHT22;3657;49.630;11.018;2023-04-03T09:00:51;6.00;99.90
7232;DHT22;3657;49.630;11.018;2023-04-03T09:03:21;6.20;99.90
7232;DHT22;3657;49.630;11.018;2023-04-03T09:05:50;6.30;99.90
7232;DHT22;3657;49.630;11.018;2023-04-03T09:08:22;6.60;99.90
7232;DHT22;3657;49.630;11.018;2023-04-03T09:10:58;6.70;99.90
7232;DHT22;3657;49.630;11.018;2023-04-03T09:13:31;6.40;99.90
7232;DHT22;3657;49.630;11.018;2023-04-03T09:16:02;6.00;99.90
7232;DHT22;3657;49.630;11.018;2023-04-03T09:18:36;6.10;99.90
7232;DHT22;3657;49.630;11.018;2023-04-03T09:21:13;6.00;99.90
7232;DHT22;3657;49.630;11.018;2023-04-03T09:23:45;6.10;99.90
7232;DHT22;3657;49.630;11.018;2023-04-03T09:26:15;6.40;99.90
7232;DHT22;3657;49.630;11.018;2023-04-03T09:28:45;6.60;99.90
7232;DHT22;3657;49.630;11.018;2023-04-03T09:31:19;6.70;99.90
7232;DHT22;3657;49.630;11.018;2023-04-03T09:33:47;6.90;99.90
7232;DHT22;3657;49.630;11.018;2023-04-03T09:36:14;7.10;99.90
7232;DHT22;3657;49.630;11.018;2023-04-03T09:39:05;7.30;99.90
7232;DHT22;3657;49.630;11.018;2023-04-03T09:41:31;7.30;99.90
7232;DHT22;3657;49.630;11.018;2023-04-03T09:43:58;7.20;99.90
7232;DHT22;3657;49.630;11.018;2023-04-03T09:46:29;7.30;99.90
7232;DHT22;3657;49.630;11.018;2023-04-03T09:48:58;7.40;99.90
7232;DHT22;3657;49.630;11.018;2023-04-03T09:51:26;7.60;99.90
7232;DHT22;3657;49.630;11.018;2023-04-03T09:53:54;7.40;99.90
7232;DHT22;3657;49.630;11.018;2023-04-03T09:56:24;7.40;99.90
7232;DHT22;3657;49.630;11.018;2023-04-03T09:59:12;7.30;99.90
7232;DHT22;3657;49.630;11.018;2023-04-03T10:01:43;7.40;99.90
7232;DHT22;3657;49.630;11.018;2023-04-03T10:04:12;7.60;99.90
7232;DHT22;3657;49.630;11.018;2023-04-03T10:06:41;7.70;99.90
7232;DHT22;3657;49.630;11.018;2023-04-03T10:09:20;7.90;99.90
7232;DHT22;3657;49.630;11.018;2023-04-03T10:12:00;7.80;99.90
7232;DHT22;3657;49.630;11.018;2023-04-03T10:14:28;7.60;99.90
7232;DHT22;3657;49.630;11.018;2023-04-03T10:17:02;7.70;99.90
7232;DHT22;3657;49.630;11.018;2023-04-03T10:19:36;7.70;99.90
7232;DHT22;3657;49.630;11.018;2023-04-03T10:22:16;7.60;99.90
7232;DHT22;3657;49.630;11.018;2023-04-03T10:24:52;7.30;99.90
7232;DHT22;3657;49.630;11.018;2023-04-03T10:27:29;7.70;99.90
7232;DHT22;3657;49.630;11.018;2023-04-03T10:30:04;7.80;99.90
7232;DHT22;3657;49.630;11.018;2023-04-03T10:32:46;7.60;99.90
7232;DHT22;3657;49.630;11.018;2023-04-03T10:35:24;7.70;99.90
7232;DHT22;3657;49.630;11.018;2023-04-03T10:38:01;7.60;99.90
7232;DHT22;3657;49.630;11.018;2023-04-03T10:40:34;7.60;99.90
7232;DHT22;3657;49.630;11.018;2023-04-03T10:43:09;7.60;99.90
7232;DHT22;3657;49.630;11.018;2023-04-03T10:45:53;7.60;99.90
7232;DHT22;3657;49.630;11.018;2023-04-03T10:48:30;7.60;99.90
7232;DHT22;3657;49.630;11.018;2023-04-03T10:51:04;7.60;99.90
7232;DHT22;3657;49.630;11.018;2023-04-03T10:53:37;7.60;99.90
7232;DHT22;3657;49.630;11.018;2023-04-03T10:56:11;7.50;99.90
7232;DHT22;3657;49.630;11.018;2023-04-03T10:58:43;7.40;99.90
7232;DHT22;3657;49.630;11.018;2023-04-03T11:01:13;7.30;99.90
7232;DHT22;3657;49.630;11.018;2023-04-03T11:03:42;7.30;99.90
7232;DHT22;3657;49.630;11.018;2023-04-03T11:06:11;7.50;99.90
7232;DHT22;3657;49.630;11.018;2023-04-03T11:08:44;7.50;99.90
7232;DHT22;3657;49.630;11.018;2023-04-03T11:11:16;7.50;99.90
7232;DHT22;3657;49.630;11.018;2023-04-03T11:13:49;7.50;99.90
7232;DHT22;3657;49.630;11.018;2023-04-03T11:16:21;7.50;99.90
7232;DHT22;3657;49.630;11.018;2023-04-03T11:18:52;7.50;99.90
7232;DHT22;3657;49.630;11.018;2023-04-03T11:21:24;7.70;99.90
7232;DHT22;3657;49.630;11.018;2023-04-03T11:23:57;8.00;99.90
7232;DHT22;3657;49.630;11.018;2023-04-03T11:26:27;8.10;99.90
7232;DHT22;3657;49.630;11.018;2023-04-03T11:29:00;7.90;99.80
7232;DHT22;3657;49.630;11.018;2023-04-03T11:31:37;8.10;99.90
7232;DHT22;3657;49.630;11.018;2023-04-03T11:34:19;8.30;99.60
7232;DHT22;3657;49.630;11.018;2023-04-03T11:36:50;8.50;99.90
7232;DHT22;3657;49.630;11.018;2023-04-03T11:39:23;8.50;99.90
7232;DHT22;3657;49.630;11.018;2023-04-03T11:41:50;8.40;99.90
7232;DHT22;3657;49.630;11.018;2023-04-03T11:44:32;8.10;99.90
7232;DHT22;3657;49.630;11.018;2023-04-03T11:47:00;8.10;99.90
7232;DHT22;3657;49.630;11.018;2023-04-03T11:49:58;8.20;99.90
7232;DHT22;3657;49.630;11.018;2023-04-03T11:52:58;8.40;99.90
7232;DHT22;3657;49.630;11.018;2023-04-03T11:55:46;8.30;99.90
7232;DHT22;3657;49.630;11.018;2023-04-03T11:58:19;8.40;99.90
7232;DHT22;3657;49.630;11.018;2023-04-03T12:01:06;8.40;99.90
7232;DHT22;3657;49.630;11.018;2023-04-03T12:07:02;8.20;99.90
7232;DHT22;3657;49.630;11.018;2023-04-03T12:09:35;8.10;99.10
7232;DHT22;3657;49.630;11.018;2023-04-03T12:12:28;8.20;99.90
7232;DHT22;3657;49.630;11.018;2023-04-03T12:14:55;8.30;99.90
7232;DHT22;3657;49.630;11.018;2023-04-03T12:17:27;8.40;99.90
7232;DHT22;3657;49.630;11.018;2023-04-03T12:19:54;8.30;99.90
7232;DHT22;3657;49.630;11.018;2023-04-03T12:22:22;8.30;99.90
7232;DHT22;3657;49.630;11.018;2023-04-03T12:24:50;8.30;99.90
7232;DHT22;3657;49.630;11.018;2023-04-03T12:27:28;8.40;99.90
7232;DHT22;3657;49.630;11.018;2023-04-03T12:30:14;8.20;99.90
7232;DHT22;3657;49.630;11.018;2023-04-03T12:33:01;8.20;99.90
7232;DHT22;3657;49.630;11.018;2023-04-03T12:35:31;8.30;99.90
7232;DHT22;3657;49.630;11.018;2023-04-03T12:38:23;8.20;99.90
7232;DHT22;3657;49.630;11.018;2023-04-03T12:40:58;8.20;99.90
7232;DHT22;3657;49.630;11.018;2023-04-03T12:43:39;8.20;99.90
7232;DHT22;3657;49.630;11.018;2023-04-03T12:46:14;8.30;99.90
7232;DHT22;3657;49.630;11.018;2023-04-03T12:48:49;8.40;99.90
7232;DHT22;3657;49.630;11.018;2023-04-03T12:51:19;8.40;99.90
7232;DHT22;3657;49.630;11.018;2023-04-03T12:53:48;8.40;99.90
7232;DHT22;3657;49.630;11.018;2023-04-03T12:56:24;8.50;99.90
7232;DHT22;3657;49.630;11.018;2023-04-03T12:58:52;8.50;99.90
7232;DHT22;3657;49.630;11.018;2023-04-03T13:01:22;8.50;99.90
7232;DHT22;3657;49.630;11.018;2023-04-03T13:03:53;8.50;99.90
7232;DHT22;3657;49.630;11.018;2023-04-03T13:06:23;8.40;99.90
7232;DHT22;3657;49.630;11.018;2023-04-03T13:08:52;8.50;99.90
7232;DHT22;3657;49.630;11.018;2023-04-03T13:11:20;8.60;99.90
7232;DHT22;3657;49.630;11.018;2023-04-03T13:13:55;8.50;99.90
7232;DHT22;3657;49.630;11.018;2023-04-03T13:16:22;8.60;99.90
7232;DHT22;3657;49.630;11.018;2023-04-03T13:18:52;8.60;99.90
7232;DHT22;3657;49.630;11.018;2023-04-03T13:21:21;8.80;99.90
7232;DHT22;3657;49.630;11.018;2023-04-03T13:23:50;8.80;99.90
7232;DHT22;3657;49.630;11.018;2023-04-03T13:26:20;9.00;99.90
7232;DHT22;3657;49.630;11.018;2023-04-03T13:28:48;9.20;99.90
7232;DHT22;3657;49.630;11.018;2023-04-03T13:31:22;9.20;99.90
7232;DHT22;3657;49.630;11.018;2023-04-03T13:33:58;9.10;99.60
7232;DHT22;3657;49.630;11.018;2023-04-03T13:36:31;9.00;99.90
7232;DHT22;3657;49.630;11.018;2023-04-03T13:39:00;9.00;99.90
7232;DHT22;3657;49.630;11.018;2023-04-03T13:41:31;9.00;99.90
7232;DHT22;3657;49.630;11.018;2023-04-03T13:44:15;9.00;99.80
7232;DHT22;3657;49.630;11.018;2023-04-03T13:46:43;8.70;98.90
7232;DHT22;3657;49.630;11.018;2023-04-03T13:49:20;8.70;99.90
7232;DHT22;3657;49.630;11.018;2023-04-03T13:51:47;8.80;99.60
7232;DHT22;3657;49.630;11.018;2023-04-03T13:54:20;8.80;99.90
7232;DHT22;3657;49.630;11.018;2023-04-03T13:56:53;9.00;99.90
7232;DHT22;3657;49.630;11.018;2023-04-03T13:59:22;9.20;99.90
7232;DHT22;3657;49.630;11.018;2023-04-03T14:01:52;9.20;99.90
7232;DHT22;3657;49.630;11.018;2023-04-03T14:04:23;9.10;99.90
7232;DHT22;3657;49.630;11.018;2023-04-03T14:06:51;9.30;99.50
7232;DHT22;3657;49.630;11.018;2023-04-03T14:09:18;9.20;99.90
7232;DHT22;3657;49.630;11.018;2023-04-03T14:11:46;9.30;99.90
7232;DHT22;3657;49.630;11.018;2023-04-03T14:14:16;9.40;99.60
7232;DHT22;3657;49.630;11.018;2023-04-03T14:16:46;9.30;99.90
7232;DHT22;3657;49.630;11.018;2023-04-03T14:19:19;9.20;99.20
7232;DHT22;3657;49.630;11.018;2023-04-03T14:21:48;9.20;99.90
7232;DHT22;3657;49.630;11.018;2023-04-03T14:24:16;9.30;99.90
7232;DHT22;3657;49.630;11.018;2023-04-03T14:26:43;9.30;98.80
7232;DHT22;3657;49.630;11.018;2023-04-03T14:29:11;9.30;99.90
7232;DHT22;3657;49.630;11.018;2023-04-03T14:31:38;9.20;99.80
7232;DHT22;3657;49.630;11.018;2023-04-03T14:34:05;9.10;99.90
7232;DHT22;3657;49.630;11.018;2023-04-03T14:36:32;8.90;98.20
7232;DHT22;3657;49.630;11.018;2023-04-03T14:39:00;9.00;99.80
7232;DHT22;3657;49.630;11.018;2023-04-03T14:41:28;9.10;99.90
7232;DHT22;3657;49.630;11.018;2023-04-03T14:43:54;9.20;99.90
7232;DHT22;3657;49.630;11.018;2023-04-03T14:46:24;9.10;98.90
7232;DHT22;3657;49.630;11.018;2023-04-03T14:48:52;8.90;99.20
7232;DHT22;3657;49.630;11.018;2023-04-03T14:51:18;8.90;99.30
7232;DHT22;3657;49.630;11.018;2023-04-03T14:53:45;8.70;97.40
7232;DHT22;3657;49.630;11.018;2023-04-03T14:56:15;8.70;98.80
7232;DHT22;3657;49.630;11.018;2023-04-03T14:58:43;8.60;98.70
7232;DHT22;3657;49.630;11.018;2023-04-03T15:01:10;8.50;99.20
7232;DHT22;3657;49.630;11.018;2023-04-03T15:03:39;8.40;98.00
7232;DHT22;3657;49.630;11.018;2023-04-03T15:06:06;8.40;99.50
7232;DHT22;3657;49.630;11.018;2023-04-03T15:08:35;8.30;97.10
7232;DHT22;3657;49.630;11.018;2023-04-03T15:11:02;8.20;98.40
7232;DHT22;3657;49.630;11.018;2023-04-03T15:13:30;8.20;99.20
7232;DHT22;3657;49.630;11.018;2023-04-03T15:16:24;8.20;99.50
7232;DHT22;3657;49.630;11.018;2023-04-03T15:18:51;8.10;99.20
7232;DHT22;3657;49.630;11.018;2023-04-03T15:21:17;7.90;95.80
7232;DHT22;3657;49.630;11.018;2023-04-03T15:23:44;8.00;97.80
7232;DHT22;3657;49.630;11.018;2023-04-03T15:26:11;8.00;98.80
7232;DHT22;3657;49.630;11.018;2023-04-03T15:28:40;8.00;97.50
7232;DHT22;3657;49.630;11.018;2023-04-03T15:31:09;8.00;99.00
7232;DHT22;3657;49.630;11.018;2023-04-03T15:33:36;8.00;99.10
7232;DHT22;3657;49.630;11.018;2023-04-03T15:36:04;7.80;98.50
7232;DHT22;3657;49.630;11.018;2023-04-03T15:38:31;7.70;97.20
7232;DHT22;3657;49.630;11.018;2023-04-03T15:40:58;7.60;97.50
7232;DHT22;3657;49.630;11.018;2023-04-03T15:43:25;7.60;97.80
7232;DHT22;3657;49.630;11.018;2023-04-03T15:45:56;7.60;98.60
7232;DHT22;3657;49.630;11.018;2023-04-03T15:48:24;7.60;97.90
7232;DHT22;3657;49.630;11.018;2023-04-03T15:50:51;7.50;97.90
7232;DHT22;3657;49.630;11.018;2023-04-03T15:53:18;7.40;96.20
7232;DHT22;3657;49.630;11.018;2023-04-03T15:55:44;7.40;97.90
7232;DHT22;3657;49.630;11.018;2023-04-03T15:58:11;7.30;95.40
7232;DHT22;3657;49.630;11.018;2023-04-03T16:00:38;7.20;98.10
7232;DHT22;3657;49.630;11.018;2023-04-03T16:03:09;7.10;97.60
7232;DHT22;3657;49.630;11.018;2023-04-03T16:05:38;7.00;96.20
7232;DHT22;3657;49.630;11.018;2023-04-03T16:08:05;7.10;98.80
7232;DHT22;3657;49.630;11.018;2023-04-03T16:10:33;7.00;97.90
7232;DHT22;3657;49.630;11.018;2023-04-03T16:13:00;7.00;97.40
7232;DHT22;3657;49.630;11.018;2023-04-03T16:15:27;7.00;97.00
7232;DHT22;3657;49.630;11.018;2023-04-03T16:17:54;6.90;96.90
7232;DHT22;3657;49.630;11.018;2023-04-03T16:20:22;6.80;98.10
7232;DHT22;3657;49.630;11.018;2023-04-03T16:22:49;6.70;97.40